createdAt,value
2024-01-06T00:01:16.977Z,3.70
2024-01-06T00:03:45.552Z,3.50
2024-01-06T00:06:16.978Z,4.70
2024-01-06T00:08:45.086Z,6.30
2024-01-06T00:11:13.269Z,9.80
2024-01-06T00:13:41.378Z,9.30
2024-01-06T00:16:09.642Z,7.70
2024-01-06T00:18:38.212Z,7.10
2024-01-06T00:21:06.594Z,5.50
2024-01-06T00:23:34.721Z,3.50
2024-01-06T00:26:03.625Z,3.10
2024-01-06T00:28:31.707Z,3.70
2024-01-06T00:30:59.878Z,3.70
2024-01-06T00:33:28.360Z,3.70
2024-01-06T00:35:57.014Z,7.50
2024-01-06T00:38:25.114Z,5.40
2024-01-06T00:40:53.280Z,3.00
2024-01-06T00:43:21.692Z,4.40
2024-01-06T00:45:50.087Z,1.40
2024-01-06T00:48:18.447Z,2.80
2024-01-06T00:50:46.607Z,5.80
2024-01-06T00:53:15.218Z,4.60
2024-01-06T00:55:43.348Z,6.50
2024-01-06T00:58:11.574Z,4.10
2024-01-06T01:00:39.830Z,2.10
2024-01-06T01:03:08.513Z,1.30
2024-01-06T01:05:36.918Z,1.30
2024-01-06T01:08:05.502Z,1.40
2024-01-06T01:10:33.547Z,1.50
2024-01-06T01:13:01.708Z,1.30
2024-01-06T01:15:29.838Z,2.20
2024-01-06T01:17:58.108Z,2.00
2024-01-06T01:20:26.310Z,1.30
2024-01-06T01:22:54.444Z,1.90
2024-01-06T01:25:22.478Z,1.10
2024-01-06T01:27:50.874Z,1.20
2024-01-06T01:30:19.270Z,1.00
2024-01-06T01:32:47.640Z,1.40
2024-01-06T01:35:16.137Z,1.40
2024-01-06T01:37:44.221Z,8.00
2024-01-06T01:40:12.600Z,6.20
2024-01-06T01:42:43.199Z,2.30
2024-01-06T01:45:13.120Z,3.40
2024-01-06T01:47:42.424Z,4.70
2024-01-06T01:50:11.257Z,2.20
2024-01-06T01:52:41.998Z,3.40
2024-01-06T01:55:10.769Z,11.40
2024-01-06T01:57:39.284Z,9.70
2024-01-06T02:00:08.418Z,7.10
2024-01-06T02:02:40.189Z,11.10
2024-01-06T02:05:08.564Z,17.20
2024-01-06T02:07:36.730Z,18.60
2024-01-06T02:10:05.644Z,17.00
2024-01-06T02:12:33.840Z,13.40
2024-01-06T02:15:01.945Z,6.10
2024-01-06T02:17:30.139Z,6.00
2024-01-06T02:19:58.438Z,3.90
2024-01-06T02:22:26.627Z,6.90
2024-01-06T02:24:55.216Z,5.20
2024-01-06T02:27:23.289Z,6.40
2024-01-06T02:29:51.397Z,4.20
2024-01-06T02:32:19.484Z,5.10
2024-01-06T02:34:47.753Z,6.40
2024-01-06T02:37:15.933Z,6.30
2024-01-06T02:39:44.079Z,9.40
2024-01-06T02:42:12.429Z,9.40
2024-01-06T02:44:40.628Z,8.90
2024-01-06T02:47:08.845Z,9.30
2024-01-06T02:49:37.139Z,7.70
2024-01-06T02:52:05.775Z,6.50
2024-01-06T02:54:34.074Z,6.10
2024-01-06T02:57:02.231Z,6.40
2024-01-06T02:59:30.520Z,7.00
2024-01-06T03:01:58.726Z,10.70
2024-01-06T03:04:26.903Z,12.20
2024-01-06T03:06:55.267Z,12.20
2024-01-06T03:09:23.447Z,14.50
2024-01-06T03:11:51.692Z,13.00
2024-01-06T03:14:19.738Z,12.30
2024-01-06T03:16:47.944Z,9.30
2024-01-06T03:19:16.240Z,8.60
2024-01-06T03:21:44.643Z,4.90
2024-01-06T03:24:13.029Z,4.50
2024-01-06T03:26:41.212Z,4.40
2024-01-06T03:29:09.388Z,6.20
2024-01-06T03:31:37.547Z,12.30
2024-01-06T03:34:05.963Z,6.70
2024-01-06T03:36:34.145Z,5.70
2024-01-06T03:39:02.207Z,6.40
2024-01-06T03:41:30.352Z,8.90
2024-01-06T03:43:58.921Z,4.70
2024-01-06T03:46:27.083Z,3.90
2024-01-06T03:48:55.245Z,4.20
2024-01-06T03:51:23.616Z,3.70
2024-01-06T03:53:51.874Z,4.50
2024-01-06T03:56:19.910Z,5.10
2024-01-06T03:58:48.250Z,5.80
2024-01-06T04:01:16.375Z,7.40
2024-01-06T04:03:44.668Z,22.90
2024-01-06T04:06:12.878Z,17.40
2024-01-06T04:08:42.693Z,4.30
2024-01-06T04:11:10.860Z,5.70
2024-01-06T04:13:38.941Z,12.70
2024-01-06T04:16:07.333Z,19.70
2024-01-06T04:18:35.574Z,17.90
2024-01-06T04:21:04.114Z,16.10
2024-01-06T04:23:32.557Z,9.20
2024-01-06T04:26:00.621Z,25.80
2024-01-06T04:28:29.034Z,20.50
2024-01-06T04:30:57.266Z,12.60
2024-01-06T04:33:25.731Z,13.40
2024-01-06T04:35:54.324Z,11.10
2024-01-06T04:38:22.430Z,11.70
2024-01-06T04:40:50.577Z,18.20
2024-01-06T04:43:18.872Z,17.00
2024-01-06T04:45:47.186Z,17.40
2024-01-06T04:48:15.572Z,15.10
2024-01-06T04:50:43.916Z,6.00
2024-01-06T04:53:12.236Z,4.20
2024-01-06T04:55:40.339Z,3.30
2024-01-06T04:58:08.325Z,6.30
2024-01-06T05:00:37.484Z,8.60
2024-01-06T05:03:05.653Z,3.50
2024-01-06T05:05:34.055Z,2.60
2024-01-06T05:08:02.956Z,4.40
2024-01-06T05:10:31.103Z,4.50
2024-01-06T05:12:59.508Z,6.40
2024-01-06T05:15:28.005Z,9.00
2024-01-06T05:17:56.700Z,12.70
2024-01-06T05:20:24.888Z,14.90
2024-01-06T05:22:52.997Z,17.20
2024-01-06T05:25:21.224Z,21.60
2024-01-06T05:27:49.402Z,24.20
2024-01-06T05:30:17.596Z,27.90
2024-01-06T05:32:46.385Z,8.50
2024-01-06T05:35:14.624Z,17.20
2024-01-06T05:37:42.838Z,27.10
2024-01-06T05:40:11.213Z,29.80
2024-01-06T05:42:39.346Z,27.60
2024-01-06T05:45:07.814Z,23.70
2024-01-06T05:47:36.301Z,19.90
2024-01-06T05:50:04.757Z,25.30
2024-01-06T05:52:32.987Z,22.70
2024-01-06T05:55:01.120Z,21.70
2024-01-06T05:57:29.676Z,40.20
2024-01-06T05:59:57.892Z,32.60
2024-01-06T06:02:26.059Z,29.40
2024-01-06T06:04:54.400Z,27.00
2024-01-06T06:07:22.566Z,22.50
2024-01-06T06:09:50.796Z,19.40
2024-01-06T06:12:19.068Z,21.40
2024-01-06T06:14:47.253Z,50.80
2024-01-06T06:17:15.363Z,43.50
2024-01-06T06:19:43.746Z,37.60
2024-01-06T06:22:12.065Z,32.50
2024-01-06T06:24:40.183Z,40.70
2024-01-06T06:27:10.489Z,42.80
2024-01-06T06:29:39.435Z,31.20
2024-01-06T06:32:07.712Z,21.10
2024-01-06T06:34:35.998Z,25.40
2024-01-06T06:37:04.821Z,29.70
2024-01-06T06:39:36.423Z,30.10
2024-01-06T06:42:05.287Z,32.80
2024-01-06T06:44:33.436Z,20.50
2024-01-06T06:47:02.341Z,24.30
2024-01-06T06:49:30.462Z,23.90
2024-01-06T06:51:58.654Z,25.60
2024-01-06T06:54:26.873Z,29.20
2024-01-06T06:56:55.021Z,51.40
2024-01-06T06:59:23.400Z,27.90
2024-01-06T07:01:51.534Z,22.10
2024-01-06T07:04:19.865Z,123.10
2024-01-06T07:06:48.190Z,74.40
2024-01-06T07:09:16.588Z,51.10
2024-01-06T07:11:44.782Z,56.70
2024-01-06T07:14:13.074Z,28.90
2024-01-06T07:16:41.185Z,17.80
2024-01-06T07:19:09.476Z,20.90
2024-01-06T07:21:38.420Z,17.00
2024-01-06T07:24:06.679Z,10.10
2024-01-06T07:26:34.948Z,8.00
2024-01-06T07:29:03.211Z,7.30
2024-01-06T07:31:31.501Z,6.40
2024-01-06T07:33:59.876Z,7.70
2024-01-06T07:36:28.055Z,13.00
2024-01-06T07:38:56.668Z,38.10
2024-01-06T07:41:24.767Z,44.00
2024-01-06T07:43:52.879Z,19.40
2024-01-06T07:46:21.038Z,15.80
2024-01-06T07:48:49.297Z,13.90
2024-01-06T07:51:18.423Z,14.60
2024-01-06T07:53:46.843Z,14.20
2024-01-06T07:56:15.054Z,17.90
2024-01-06T07:58:43.144Z,12.60
2024-01-06T08:01:11.371Z,8.20
2024-01-06T08:03:39.673Z,6.70
2024-01-06T08:06:08.076Z,5.60
2024-01-06T08:08:36.854Z,7.60
2024-01-06T08:11:05.178Z,6.90
2024-01-06T08:13:33.285Z,6.60
2024-01-06T08:16:01.617Z,8.80
2024-01-06T08:18:29.960Z,6.20
2024-01-06T08:20:58.253Z,6.10
2024-01-06T08:23:27.123Z,6.00
2024-01-06T08:25:55.379Z,6.60
2024-01-06T08:28:24.462Z,6.40
2024-01-06T08:30:52.867Z,7.00
2024-01-06T08:33:21.569Z,6.30
2024-01-06T08:35:49.918Z,6.00
2024-01-06T08:38:18.213Z,5.50
2024-01-06T08:40:49.173Z,6.20
2024-01-06T08:43:17.710Z,6.60
2024-01-06T08:45:47.214Z,8.20
2024-01-06T08:48:16.638Z,7.60
2024-01-06T08:50:46.782Z,17.20
2024-01-06T08:53:15.118Z,15.10
2024-01-06T08:55:46.435Z,14.80
2024-01-06T08:58:15.465Z,11.20
2024-01-06T09:00:43.637Z,12.80
2024-01-06T09:03:13.804Z,16.40
2024-01-06T09:05:42.049Z,9.50
2024-01-06T09:08:10.446Z,8.90
2024-01-06T09:10:38.633Z,8.40
2024-01-06T09:13:06.817Z,9.30
2024-01-06T09:15:34.945Z,10.10
2024-01-06T09:18:04.115Z,11.90
2024-01-06T09:20:32.308Z,10.40
2024-01-06T09:23:00.695Z,10.40
2024-01-06T09:25:28.742Z,9.80
2024-01-06T09:27:56.916Z,12.60
2024-01-06T09:30:26.277Z,11.90
2024-01-06T09:32:54.530Z,12.00
2024-01-06T09:35:22.765Z,10.70
2024-01-06T09:37:50.925Z,11.50
2024-01-06T09:40:24.431Z,15.80
2024-01-06T09:42:53.504Z,17.90
2024-01-06T09:45:22.300Z,22.50
2024-01-06T09:47:52.389Z,20.00
2024-01-06T09:50:21.553Z,12.70
2024-01-06T09:53:05.211Z,11.50
2024-01-06T09:58:03.281Z,9.30
2024-01-06T10:00:32.470Z,8.60
2024-01-06T10:03:00.560Z,13.20
2024-01-06T10:05:28.852Z,8.80
2024-01-06T10:07:57.023Z,8.40
2024-01-06T10:10:25.491Z,8.80
2024-01-06T10:12:56.191Z,7.90
2024-01-06T10:15:24.580Z,7.50
2024-01-06T10:17:55.382Z,9.70
2024-01-06T10:20:23.639Z,10.90
2024-01-06T10:22:52.243Z,8.70
2024-01-06T10:25:20.433Z,9.10
2024-01-06T10:27:48.487Z,9.60
2024-01-06T10:30:19.547Z,9.80
2024-01-06T10:32:47.940Z,9.40
2024-01-06T10:35:16.662Z,8.00
2024-01-06T10:37:45.572Z,7.10
2024-01-06T10:40:17.985Z,7.30
2024-01-06T10:42:46.987Z,7.80
2024-01-06T10:45:15.866Z,7.60
2024-01-06T10:47:45.291Z,8.80
2024-01-06T10:50:15.868Z,10.50
2024-01-06T10:52:45.078Z,11.40
2024-01-06T10:55:17.509Z,12.00
2024-01-06T10:57:46.809Z,9.40
2024-01-06T11:00:15.595Z,9.50
2024-01-06T11:02:44.935Z,12.50
2024-01-06T11:05:14.778Z,10.10
2024-01-06T11:07:43.288Z,8.10
2024-01-06T11:10:19.527Z,7.80
2024-01-06T11:13:07.788Z,8.00
2024-01-06T11:15:48.090Z,7.70
2024-01-06T11:18:37.050Z,7.00
2024-01-06T11:21:22.839Z,9.30
2024-01-06T11:24:08.627Z,9.60
2024-01-06T11:26:40.671Z,7.00
2024-01-06T11:29:08.981Z,10.50
2024-01-06T11:31:38.496Z,9.90
2024-01-06T11:34:20.280Z,12.70
2024-01-06T11:36:51.712Z,12.80
2024-01-06T11:39:42.014Z,14.70
2024-01-06T11:42:13.734Z,10.50
2024-01-06T11:44:46.531Z,9.00
2024-01-06T11:47:16.091Z,9.30
2024-01-06T11:49:47.125Z,13.30
2024-01-06T11:52:15.421Z,11.20
2024-01-06T11:54:44.051Z,18.00
2024-01-06T11:57:12.255Z,16.00
2024-01-06T11:59:40.861Z,16.00
2024-01-06T12:02:14.084Z,14.30
2024-01-06T12:07:11.309Z,9.90
2024-01-06T12:09:39.537Z,11.80
2024-01-06T12:12:08.183Z,10.50
2024-01-06T12:14:36.269Z,9.20
2024-01-06T12:17:05.546Z,9.60
2024-01-06T12:19:38.388Z,12.20
2024-01-06T12:22:08.861Z,11.10
2024-01-06T12:24:37.375Z,10.40
2024-01-06T12:27:09.158Z,9.90
2024-01-06T12:29:42.212Z,10.80
2024-01-06T12:32:11.537Z,15.10
2024-01-06T12:34:40.558Z,8.10
2024-01-06T12:37:09.203Z,12.30
2024-01-06T12:39:37.483Z,10.10
2024-01-06T12:42:06.487Z,8.10
2024-01-06T12:44:38.042Z,8.30
2024-01-06T12:47:06.346Z,8.40
2024-01-06T12:49:37.200Z,8.20
2024-01-06T12:52:07.505Z,7.90
2024-01-06T12:54:35.862Z,12.40
2024-01-06T12:57:04.672Z,14.50
2024-01-06T12:59:32.987Z,12.10
2024-01-06T13:02:01.222Z,11.20
2024-01-06T13:04:29.669Z,14.20
2024-01-06T13:07:01.479Z,16.10
2024-01-06T13:09:31.611Z,36.80
2024-01-06T13:12:01.717Z,15.10
2024-01-06T13:14:31.488Z,12.40
2024-01-06T13:16:59.699Z,14.80
2024-01-06T13:19:28.493Z,10.70
2024-01-06T13:21:56.953Z,10.90
2024-01-06T13:24:25.242Z,9.20
2024-01-06T13:26:53.389Z,9.70
2024-01-06T13:29:21.504Z,8.10
2024-01-06T13:31:50.035Z,10.10
2024-01-06T13:34:19.060Z,8.30
2024-01-06T13:36:48.142Z,15.90
2024-01-06T13:39:21.889Z,16.30
2024-01-06T13:41:50.964Z,15.50
2024-01-06T13:44:19.629Z,14.40
2024-01-06T13:46:49.011Z,16.50
2024-01-06T13:49:17.314Z,13.40
2024-01-06T13:51:45.559Z,11.20
2024-01-06T13:54:15.671Z,12.50
2024-01-06T13:56:45.469Z,15.10
2024-01-06T13:59:13.629Z,15.90
2024-01-06T14:01:41.931Z,16.30
2024-01-06T14:04:10.247Z,27.80
2024-01-06T14:06:41.161Z,20.10
2024-01-06T14:09:10.202Z,12.20
2024-01-06T14:11:38.322Z,10.80
2024-01-06T14:14:06.596Z,11.60
2024-01-06T14:16:34.880Z,21.00
2024-01-06T14:19:03.299Z,29.00
2024-01-06T14:21:31.579Z,28.60
2024-01-06T14:24:00.852Z,29.20
2024-01-06T14:26:28.972Z,29.70
2024-01-06T14:28:59.634Z,30.30
2024-01-06T14:31:30.972Z,23.90
2024-01-06T14:34:00.984Z,17.10
2024-01-06T14:36:29.583Z,13.00
2024-01-06T14:38:57.829Z,18.30
2024-01-06T14:41:25.985Z,25.60
2024-01-06T14:43:54.241Z,22.80
2024-01-06T14:46:22.402Z,11.80
2024-01-06T14:48:50.608Z,12.40
2024-01-06T14:51:18.969Z,13.00
2024-01-06T14:53:47.217Z,11.70
2024-01-06T14:56:15.646Z,13.90
2024-01-06T14:58:43.823Z,23.30
2024-01-06T15:01:11.986Z,27.80
2024-01-06T15:03:40.403Z,22.50
2024-01-06T15:06:09.452Z,19.60
2024-01-06T15:08:37.604Z,31.50
2024-01-06T15:11:05.852Z,26.20
2024-01-06T15:13:34.063Z,23.90
2024-01-06T15:16:02.344Z,25.20
2024-01-06T15:18:30.694Z,20.00
2024-01-06T15:21:00.072Z,24.80
2024-01-06T15:23:28.112Z,19.70
2024-01-06T15:25:56.641Z,28.10
2024-01-06T15:28:24.870Z,22.80
2024-01-06T15:30:53.040Z,22.40
2024-01-06T15:33:21.340Z,17.10
2024-01-06T15:35:49.586Z,24.00
2024-01-06T15:38:17.667Z,29.10
2024-01-06T15:40:45.828Z,34.00
2024-01-06T15:43:13.941Z,34.30
2024-01-06T15:45:42.084Z,39.00
2024-01-06T15:48:10.543Z,32.50
2024-01-06T15:50:38.707Z,33.60
2024-01-06T15:53:07.004Z,37.40
2024-01-06T15:55:35.157Z,23.70
2024-01-06T15:58:03.374Z,17.30
2024-01-06T16:00:33.430Z,13.60
2024-01-06T16:03:03.693Z,9.10
2024-01-06T16:05:32.187Z,9.10
2024-01-06T16:08:00.351Z,8.60
2024-01-06T16:10:30.045Z,16.10
2024-01-06T16:13:00.955Z,7.30
2024-01-06T16:15:29.243Z,6.60
2024-01-06T16:17:57.604Z,6.10
2024-01-06T16:20:25.959Z,15.20
2024-01-06T16:22:55.010Z,13.40
2024-01-06T16:25:23.604Z,7.60
2024-01-06T16:27:51.871Z,9.00
2024-01-06T16:30:20.252Z,8.80
2024-01-06T16:32:49.166Z,8.60
2024-01-06T16:35:17.357Z,6.20
2024-01-06T16:37:45.563Z,11.20
2024-01-06T16:40:13.817Z,8.60
2024-01-06T16:42:42.042Z,7.00
2024-01-06T16:45:10.238Z,7.10
2024-01-06T16:47:38.695Z,10.20
2024-01-06T16:50:07.528Z,9.00
2024-01-06T16:52:37.438Z,8.10
2024-01-06T16:55:09.305Z,12.50
2024-01-06T16:57:37.629Z,6.50
2024-01-06T17:00:06.342Z,6.90
2024-01-06T17:02:34.614Z,11.10
2024-01-06T17:05:03.071Z,18.40
2024-01-06T17:07:31.255Z,10.10
2024-01-06T17:10:02.121Z,14.20
2024-01-06T17:12:30.248Z,11.40
2024-01-06T17:14:58.497Z,7.30
2024-01-06T17:17:26.675Z,7.10
2024-01-06T17:19:55.013Z,6.70
2024-01-06T17:22:23.274Z,7.10
2024-01-06T17:24:52.053Z,7.20
2024-01-06T17:27:20.297Z,8.40
2024-01-06T17:29:48.470Z,8.50
2024-01-06T17:32:16.585Z,10.50
2024-01-06T17:34:45.189Z,12.20
2024-01-06T17:37:14.360Z,13.40
2024-01-06T17:39:42.905Z,17.40
2024-01-06T17:42:11.173Z,17.30
2024-01-06T17:44:44.264Z,19.90
2024-01-06T17:47:13.543Z,20.00
2024-01-06T17:49:42.165Z,27.00
2024-01-06T17:52:12.214Z,25.80
2024-01-06T17:54:40.883Z,20.40
2024-01-06T17:57:09.311Z,20.40
2024-01-06T17:59:37.593Z,19.70
2024-01-06T18:02:06.132Z,29.90
2024-01-06T18:04:34.475Z,26.90
2024-01-06T18:07:02.793Z,25.00
2024-01-06T18:09:31.120Z,23.30
2024-01-06T18:11:59.389Z,21.20
2024-01-06T18:14:32.430Z,16.30
2024-01-06T18:17:00.920Z,14.70
2024-01-06T18:19:29.120Z,15.00
2024-01-06T18:21:57.401Z,16.70
2024-01-06T18:24:25.903Z,15.40
2024-01-06T18:26:54.078Z,18.90
2024-01-06T18:29:23.907Z,11.00
2024-01-06T18:31:52.381Z,17.00
2024-01-06T18:34:20.762Z,10.50
2024-01-06T18:36:48.945Z,8.50
2024-01-06T18:39:17.191Z,8.80
2024-01-06T18:41:45.580Z,8.50
2024-01-06T18:44:13.846Z,9.10
2024-01-06T18:46:43.583Z,10.00
2024-01-06T18:49:12.326Z,11.20
2024-01-06T18:51:40.778Z,7.10
2024-01-06T18:54:12.380Z,6.60
2024-01-06T18:56:42.246Z,8.80
2024-01-06T18:59:10.505Z,10.60
2024-01-06T19:01:38.719Z,10.60
2024-01-06T19:04:06.981Z,11.20
2024-01-06T19:06:35.144Z,16.60
2024-01-06T19:09:03.263Z,19.90
2024-01-06T19:11:31.440Z,20.20
2024-01-06T19:13:59.517Z,19.70
2024-01-06T19:16:27.633Z,17.90
2024-01-06T19:18:55.754Z,16.90
2024-01-06T19:21:23.912Z,13.60
2024-01-06T19:23:51.982Z,21.00
2024-01-06T19:26:20.404Z,19.60
2024-01-06T19:28:48.701Z,7.70
2024-01-06T19:31:17.363Z,9.20
2024-01-06T19:33:46.315Z,9.70
2024-01-06T19:36:16.230Z,17.30
2024-01-06T19:38:44.345Z,15.90
2024-01-06T19:41:12.542Z,16.30
2024-01-06T19:43:41.549Z,15.20
2024-01-06T19:46:12.073Z,14.80
2024-01-06T19:48:40.326Z,21.50
2024-01-06T19:51:08.688Z,24.70
2024-01-06T19:53:42.200Z,13.30
2024-01-06T19:56:15.741Z,13.10
2024-01-06T19:58:44.026Z,11.80
2024-01-06T20:01:12.272Z,12.90
2024-01-06T20:03:41.121Z,10.60
2024-01-06T20:06:09.486Z,12.30
2024-01-06T20:08:37.754Z,15.50
2024-01-06T20:11:05.913Z,16.30
2024-01-06T20:13:34.116Z,15.20
2024-01-06T20:16:04.088Z,15.00
2024-01-06T20:18:32.877Z,14.20
2024-01-06T20:21:03.680Z,18.30
2024-01-06T20:23:32.261Z,22.10
2024-01-06T20:26:01.432Z,20.60
2024-01-06T20:28:29.752Z,25.50
2024-01-06T20:30:58.142Z,24.80
2024-01-06T20:33:27.299Z,22.10
2024-01-06T20:35:55.555Z,21.00
2024-01-06T20:38:24.410Z,20.80
2024-01-06T20:40:52.852Z,21.50
2024-01-06T20:43:20.999Z,22.40
2024-01-06T20:45:54.673Z,21.50
2024-01-06T20:48:22.857Z,22.30
2024-01-06T20:50:50.939Z,22.90
2024-01-06T20:53:19.223Z,22.10
2024-01-06T20:55:47.534Z,22.00
2024-01-06T20:58:15.807Z,21.60
2024-01-06T21:00:44.074Z,21.50
2024-01-06T21:03:12.351Z,22.40
2024-01-06T21:05:42.517Z,20.90
2024-01-06T21:08:11.079Z,20.40
2024-01-06T21:10:39.314Z,18.40
2024-01-06T21:13:07.484Z,19.40
2024-01-06T21:15:36.124Z,17.60
2024-01-06T21:18:04.473Z,16.90
2024-01-06T21:20:34.273Z,24.40
2024-01-06T21:23:04.169Z,27.80
2024-01-06T21:25:32.549Z,25.90
2024-01-06T21:28:00.719Z,28.60
2024-01-06T21:30:29.039Z,36.90
2024-01-06T21:33:02.076Z,47.30
2024-01-06T21:35:31.452Z,47.00
2024-01-06T21:37:59.797Z,49.30
2024-01-06T21:40:28.524Z,42.30
2024-01-06T21:42:57.084Z,28.40
2024-01-06T21:45:25.264Z,29.20
2024-01-06T21:47:56.889Z,23.20
2024-01-06T21:50:25.480Z,20.30
2024-01-06T21:52:53.588Z,23.20
2024-01-06T21:55:21.897Z,32.40
2024-01-06T21:57:50.183Z,55.80
2024-01-06T22:00:20.848Z,47.90
2024-01-06T22:02:52.014Z,17.40
2024-01-06T22:05:20.449Z,18.20
2024-01-06T22:07:48.706Z,24.30
2024-01-06T22:10:16.944Z,12.30
2024-01-06T22:12:45.234Z,23.00
2024-01-06T22:15:15.331Z,20.80
2024-01-06T22:17:43.910Z,18.40
2024-01-06T22:20:12.375Z,30.00
2024-01-06T22:22:40.540Z,34.60
2024-01-06T22:25:09.173Z,28.30
2024-01-06T22:27:37.370Z,25.10
2024-01-06T22:30:09.077Z,28.40
2024-01-06T22:32:38.919Z,21.50
2024-01-06T22:35:07.878Z,26.40
2024-01-06T22:37:37.024Z,29.50
2024-01-06T22:40:06.480Z,29.20
2024-01-06T22:42:34.924Z,23.10
2024-01-06T22:45:03.140Z,27.50
2024-01-06T22:47:31.507Z,31.00
2024-01-06T22:49:59.621Z,27.70
2024-01-06T22:52:27.727Z,22.90
2024-01-06T22:54:55.985Z,24.00
2024-01-06T22:57:24.256Z,25.30
2024-01-06T22:59:52.527Z,31.00
2024-01-06T23:02:20.868Z,29.10
2024-01-06T23:04:49.141Z,36.30
2024-01-06T23:07:17.229Z,25.10
2024-01-06T23:09:45.371Z,14.30
2024-01-06T23:12:13.549Z,41.50
2024-01-06T23:14:41.757Z,39.00
2024-01-06T23:17:10.255Z,59.00
2024-01-06T23:19:42.488Z,69.00
2024-01-06T23:22:12.919Z,34.80
2024-01-06T23:24:41.172Z,41.10
2024-01-06T23:27:09.415Z,33.60
2024-01-06T23:29:39.361Z,37.00
2024-01-06T23:32:09.011Z,48.80
2024-01-06T23:34:42.575Z,45.20
2024-01-06T23:37:11.637Z,38.40
2024-01-06T23:39:39.775Z,33.80
2024-01-06T23:42:10.443Z,33.00
2024-01-06T23:44:38.691Z,35.40
2024-01-06T23:47:07.939Z,34.60
2024-01-06T23:49:36.359Z,35.30
2024-01-06T23:52:04.999Z,28.40
2024-01-06T23:54:33.119Z,24.90
2024-01-06T23:57:01.597Z,26.70
2024-01-06T23:59:29.975Z,24.20
